createdAt,value
2022-11-24T00:00:50.515Z,19.90
2022-11-24T00:03:58.309Z,20.27
2022-11-24T00:07:01.231Z,19.60
2022-11-24T00:10:04.818Z,20.50
2022-11-24T00:13:07.726Z,21.35
2022-11-24T00:16:14.918Z,19.93
2022-11-24T00:19:19.863Z,21.93
2022-11-24T00:22:22.992Z,21.87
2022-11-24T00:25:25.848Z,21.95
2022-11-24T00:28:28.775Z,22.77
2022-11-24T00:31:35.529Z,21.83
2022-11-24T00:34:38.817Z,22.70
2022-11-24T00:37:41.672Z,22.10
2022-11-24T00:40:46.018Z,23.65
2022-11-24T00:43:49.132Z,23.20
2022-11-24T00:46:52.112Z,22.37
2022-11-24T00:49:55.052Z,23.53
2022-11-24T00:52:57.954Z,23.60
2022-11-24T00:56:01.037Z,23.60
2022-11-24T00:59:04.383Z,22.87
2022-11-24T01:02:07.827Z,22.07
2022-11-24T01:05:11.464Z,23.83
2022-11-24T01:08:15.246Z,26.05
2022-11-24T01:11:27.187Z,24.00
2022-11-24T01:14:32.156Z,24.87
2022-11-24T01:17:35.230Z,23.77
2022-11-24T01:20:38.985Z,23.97
2022-11-24T01:23:42.076Z,23.42
2022-11-24T01:26:45.120Z,24.30
2022-11-24T01:29:48.120Z,25.25
2022-11-24T01:32:50.995Z,24.37
2022-11-24T01:35:53.941Z,24.23
2022-11-24T01:38:56.872Z,25.12
2022-11-24T01:42:02.442Z,24.30
2022-11-24T01:45:33.246Z,23.80
2022-11-24T01:48:44.036Z,23.03
2022-11-24T01:51:55.406Z,24.23
2022-11-24T01:55:06.538Z,22.98
2022-11-24T01:58:19.932Z,25.20
2022-11-24T02:01:23.197Z,24.65
2022-11-24T02:04:29.249Z,25.30
2022-11-24T02:07:32.621Z,24.50
2022-11-24T02:10:35.857Z,25.35
2022-11-24T02:13:39.669Z,23.60
2022-11-24T02:16:44.911Z,26.23
2022-11-24T02:19:55.954Z,23.53
2022-11-24T02:23:21.097Z,24.07
2022-11-24T02:26:41.859Z,24.75
2022-11-24T02:29:45.006Z,21.30
2022-11-24T02:32:47.965Z,20.60
2022-11-24T02:35:51.171Z,17.50
2022-11-24T02:38:54.220Z,16.70
2022-11-24T02:42:15.357Z,15.63
2022-11-24T02:45:19.018Z,14.35
2022-11-24T02:48:21.949Z,11.30
2022-11-24T02:51:25.155Z,10.67
2022-11-24T02:54:28.717Z,11.17
2022-11-24T02:57:31.905Z,9.52
2022-11-24T03:00:35.287Z,10.77
2022-11-24T03:03:38.345Z,10.85
2022-11-24T03:06:41.344Z,11.50
2022-11-24T03:09:44.448Z,11.67
2022-11-24T03:12:47.394Z,12.85
2022-11-24T03:15:50.316Z,14.30
2022-11-24T03:18:53.785Z,14.50
2022-11-24T03:21:56.745Z,16.07
2022-11-24T03:24:59.728Z,17.87
2022-11-24T03:28:02.745Z,19.77
2022-11-24T03:31:07.498Z,22.00
2022-11-24T03:34:10.858Z,23.10
2022-11-24T03:37:13.823Z,25.23
2022-11-24T03:40:18.420Z,24.00
2022-11-24T03:43:21.326Z,25.10
2022-11-24T03:46:24.325Z,24.40
2022-11-24T03:49:27.753Z,25.45
2022-11-24T03:52:30.666Z,24.00
2022-11-24T03:55:33.567Z,24.33
2022-11-24T03:58:36.805Z,24.33
2022-11-24T04:01:40.316Z,24.70
2022-11-24T04:04:48.460Z,26.90
2022-11-24T04:07:57.187Z,25.17
2022-11-24T04:11:00.195Z,25.80
2022-11-24T04:14:02.997Z,24.95
2022-11-24T04:17:05.909Z,25.12
2022-11-24T04:20:09.919Z,25.65
2022-11-24T04:23:12.945Z,28.13
2022-11-24T04:26:15.811Z,25.83
2022-11-24T04:29:19.083Z,24.87
2022-11-24T04:32:21.942Z,26.75
2022-11-24T04:35:25.463Z,25.77
2022-11-24T04:39:23.121Z,25.57
2022-11-24T04:41:51.537Z,24.90
2022-11-24T04:44:54.439Z,24.67
2022-11-24T04:47:57.459Z,26.23
2022-11-24T04:51:00.328Z,25.40
2022-11-24T04:54:03.356Z,22.00
2022-11-24T04:57:06.388Z,23.47
2022-11-24T05:00:10.000Z,20.70
2022-11-24T05:03:12.984Z,21.75
2022-11-24T05:06:16.015Z,19.75
2022-11-24T05:09:19.133Z,18.40
2022-11-24T05:12:22.417Z,19.07
2022-11-24T05:15:26.235Z,17.60
2022-11-24T05:18:29.259Z,16.55
2022-11-24T05:21:32.352Z,15.82
2022-11-24T05:24:35.524Z,15.73
2022-11-24T05:27:38.512Z,13.47
2022-11-24T05:30:42.112Z,14.82
2022-11-24T05:33:46.022Z,14.35
2022-11-24T05:36:54.850Z,15.00
2022-11-24T05:39:57.977Z,13.57
2022-11-24T05:43:00.888Z,12.53
2022-11-24T05:46:03.803Z,13.10
2022-11-24T05:49:06.832Z,12.80
2022-11-24T05:52:09.888Z,14.52
2022-11-24T05:55:14.976Z,14.37
2022-11-24T05:58:17.877Z,14.53
2022-11-24T06:01:20.963Z,13.85
2022-11-24T06:04:23.963Z,15.65
2022-11-24T06:07:26.851Z,14.63
2022-11-24T06:10:29.942Z,15.27
2022-11-24T06:13:32.870Z,15.43
2022-11-24T06:16:36.758Z,15.13
2022-11-24T06:19:42.125Z,14.40
2022-11-24T06:22:45.437Z,15.63
2022-11-24T06:25:51.473Z,14.30
2022-11-24T06:28:54.768Z,14.20
2022-11-24T06:31:58.163Z,14.52
2022-11-24T06:35:01.062Z,14.02
2022-11-24T06:38:05.601Z,13.75
2022-11-24T06:41:12.794Z,13.67
2022-11-24T06:44:15.905Z,13.43
2022-11-24T06:47:18.989Z,12.32
2022-11-24T06:50:22.184Z,13.18
2022-11-24T06:53:25.639Z,11.88
2022-11-24T06:56:28.508Z,12.47
2022-11-24T06:59:31.474Z,13.50
2022-11-24T07:02:35.057Z,12.25
2022-11-24T07:05:38.766Z,11.98
2022-11-24T07:08:41.672Z,11.90
2022-11-24T07:11:44.647Z,11.20
2022-11-24T07:14:47.588Z,12.03
2022-11-24T07:17:50.519Z,11.07
2022-11-24T07:20:53.314Z,11.82
2022-11-24T07:23:57.174Z,11.25
2022-11-24T07:27:00.022Z,10.33
2022-11-24T07:30:04.674Z,9.90
2022-11-24T07:33:07.583Z,10.00
2022-11-24T07:36:10.590Z,10.57
2022-11-24T07:39:13.644Z,10.10
2022-11-24T07:42:17.566Z,10.63
2022-11-24T07:45:21.366Z,9.60
2022-11-24T07:48:24.899Z,9.10
2022-11-24T07:51:28.206Z,10.18
2022-11-24T07:54:31.903Z,9.05
2022-11-24T07:57:35.257Z,10.00
2022-11-24T08:00:38.305Z,9.30
2022-11-24T08:03:42.097Z,8.88
2022-11-24T08:06:47.508Z,8.20
2022-11-24T08:09:52.737Z,7.93
2022-11-24T08:12:56.052Z,8.07
2022-11-24T08:16:00.100Z,7.80
2022-11-24T08:19:03.763Z,7.75
2022-11-24T08:22:06.866Z,8.93
2022-11-24T08:25:10.097Z,8.98
2022-11-24T08:28:17.465Z,8.80
2022-11-24T08:31:21.085Z,8.07
2022-11-24T08:34:28.004Z,8.18
2022-11-24T08:37:31.309Z,7.50
2022-11-24T08:40:34.456Z,7.53
2022-11-24T08:43:37.617Z,7.17
2022-11-24T08:46:41.091Z,6.87
2022-11-24T08:49:44.682Z,6.97
2022-11-24T08:52:47.957Z,6.40
2022-11-24T08:55:51.761Z,6.35
2022-11-24T08:58:56.543Z,5.93
2022-11-24T09:01:59.725Z,6.00
2022-11-24T09:05:03.296Z,6.43
2022-11-24T09:08:06.237Z,5.82
2022-11-24T09:11:14.670Z,5.25
2022-11-24T09:14:17.566Z,5.57
2022-11-24T09:17:20.644Z,5.93
2022-11-24T09:23:44.991Z,6.18
2022-11-24T09:26:48.091Z,5.97
2022-11-24T09:29:50.939Z,6.70
2022-11-24T09:32:56.439Z,5.37
2022-11-24T09:36:00.741Z,6.05
2022-11-24T09:39:04.237Z,5.45
2022-11-24T09:42:25.664Z,5.57
2022-11-24T09:46:05.147Z,5.17
2022-11-24T09:49:14.839Z,5.10
2022-11-24T09:52:23.759Z,5.80
2022-11-24T09:55:49.156Z,5.00
2022-11-24T09:58:55.268Z,5.00
2022-11-24T10:01:58.299Z,4.10
2022-11-24T10:05:01.339Z,4.93
2022-11-24T10:08:17.505Z,5.20
2022-11-24T10:11:34.033Z,4.60
2022-11-24T10:14:47.691Z,4.93
2022-11-24T10:18:00.504Z,4.87
2022-11-24T10:21:19.392Z,5.20
2022-11-24T10:24:37.823Z,5.12
2022-11-24T10:27:45.140Z,4.57
2022-11-24T10:30:48.449Z,4.65
2022-11-24T10:33:51.817Z,4.60
2022-11-24T10:37:22.225Z,5.10
2022-11-24T10:40:57.021Z,4.62
2022-11-24T10:44:01.100Z,4.40
2022-11-24T10:47:04.499Z,4.12
2022-11-24T10:50:29.073Z,4.33
2022-11-24T10:53:33.250Z,4.27
2022-11-24T10:56:43.947Z,4.28
2022-11-24T10:59:46.969Z,4.03
2022-11-24T11:02:51.739Z,4.93
2022-11-24T11:06:18.301Z,4.70
2022-11-24T11:09:24.038Z,4.60
2022-11-24T11:12:46.019Z,4.20
2022-11-24T11:15:49.290Z,4.35
2022-11-24T11:18:52.684Z,4.53
2022-11-24T11:22:24.205Z,4.33
2022-11-24T11:25:34.056Z,4.27
2022-11-24T11:28:37.069Z,3.72
2022-11-24T11:31:41.595Z,4.03
2022-11-24T11:34:45.142Z,3.95
2022-11-24T11:37:49.513Z,4.13
2022-11-24T11:40:52.925Z,3.77
2022-11-24T11:44:29.313Z,4.03
2022-11-24T11:47:34.919Z,3.80
2022-11-24T11:51:21.034Z,3.72
2022-11-24T11:54:23.135Z,3.63
2022-11-24T11:58:08.223Z,3.40
2022-11-24T12:01:23.711Z,2.97
2022-11-24T12:04:41.980Z,3.70
2022-11-24T12:08:02.355Z,3.25
2022-11-24T12:11:20.295Z,2.83
2022-11-24T12:14:43.159Z,3.10
2022-11-24T12:17:56.026Z,3.20
2022-11-24T12:21:30.505Z,2.83
2022-11-24T12:25:05.499Z,3.10
2022-11-24T12:28:30.189Z,2.80
2022-11-24T12:31:46.985Z,2.83
2022-11-24T12:35:00.522Z,2.87
2022-11-24T12:38:32.311Z,3.20
2022-11-24T12:41:42.973Z,2.95
2022-11-24T12:45:14.467Z,3.23
2022-11-24T12:48:28.583Z,3.20
2022-11-24T12:51:43.029Z,3.05
2022-11-24T12:54:45.971Z,2.78
2022-11-24T12:58:24.673Z,3.28
2022-11-24T13:01:55.428Z,2.80
2022-11-24T13:05:17.934Z,2.20
2022-11-24T13:08:21.529Z,2.58
2022-11-24T13:11:24.835Z,2.70
2022-11-24T13:14:37.818Z,2.65
2022-11-24T13:17:59.473Z,2.57
2022-11-24T13:21:49.192Z,3.07
2022-11-24T13:25:15.440Z,2.50
2022-11-24T13:29:05.779Z,2.95
2022-11-24T13:32:09.204Z,2.70
2022-11-24T13:35:16.982Z,2.70
2022-11-24T13:38:40.245Z,2.33
2022-11-24T13:41:43.196Z,2.80
2022-11-24T13:44:48.171Z,2.30
2022-11-24T13:47:51.264Z,2.53
2022-11-24T13:50:54.608Z,2.17
2022-11-24T13:54:00.515Z,2.67
2022-11-24T13:57:42.015Z,2.53
2022-11-24T14:01:23.328Z,2.72
2022-11-24T14:04:31.173Z,2.15
2022-11-24T14:07:35.329Z,2.53
2022-11-24T14:10:38.581Z,2.80
2022-11-24T14:13:42.104Z,2.60
2022-11-24T14:16:45.352Z,2.55
2022-11-24T14:19:55.076Z,2.90
2022-11-24T14:22:58.758Z,2.87
2022-11-24T14:26:03.634Z,3.00
2022-11-24T14:29:20.578Z,5.10
2022-11-24T14:32:24.510Z,7.00
2022-11-24T14:35:36.133Z,7.53
2022-11-24T14:38:39.616Z,5.60
2022-11-24T14:41:44.734Z,4.90
2022-11-24T14:44:54.646Z,9.38
2022-11-24T14:47:57.739Z,10.23
2022-11-24T14:51:19.957Z,8.48
2022-11-24T14:54:25.038Z,7.30
2022-11-24T14:57:33.774Z,5.47
2022-11-24T15:00:37.212Z,6.45
2022-11-24T15:03:40.453Z,5.20
2022-11-24T15:06:45.888Z,5.80
2022-11-24T15:09:53.327Z,4.37
2022-11-24T15:13:01.195Z,4.90
2022-11-24T15:16:08.683Z,4.80
2022-11-24T15:19:15.729Z,4.60
2022-11-24T15:22:38.294Z,4.28
2022-11-24T15:25:41.401Z,5.77
2022-11-24T15:28:47.029Z,8.70
2022-11-24T15:31:52.895Z,6.97
2022-11-24T15:34:56.426Z,6.30
2022-11-24T15:37:59.787Z,5.20
2022-11-24T15:41:03.437Z,4.30
2022-11-24T15:44:06.741Z,4.13
2022-11-24T15:47:10.320Z,4.50
2022-11-24T15:50:14.911Z,4.57
2022-11-24T15:53:31.680Z,5.18
2022-11-24T15:56:37.188Z,7.50
2022-11-24T15:59:40.641Z,5.13
2022-11-24T16:02:44.238Z,4.70
2022-11-24T16:05:49.179Z,5.60
2022-11-24T16:08:53.288Z,4.40
2022-11-24T16:11:56.591Z,5.00
2022-11-24T16:14:59.679Z,7.03
2022-11-24T16:18:05.619Z,5.95
2022-11-24T16:21:09.860Z,4.62
2022-11-24T16:24:13.756Z,4.93
2022-11-24T16:27:16.950Z,4.90
2022-11-24T16:30:20.634Z,5.20
2022-11-24T16:33:24.182Z,5.18
2022-11-24T16:36:28.847Z,5.87
2022-11-24T16:39:32.653Z,6.15
2022-11-24T16:42:35.977Z,6.00
2022-11-24T16:45:45.010Z,4.50
2022-11-24T16:48:51.815Z,4.90
2022-11-24T16:51:54.920Z,6.72
2022-11-24T16:54:58.581Z,5.97
2022-11-24T16:58:05.422Z,7.13
2022-11-24T17:01:11.134Z,5.97
2022-11-24T17:04:15.290Z,6.70
2022-11-24T17:07:19.691Z,5.97
2022-11-24T17:10:23.463Z,7.57
2022-11-24T17:13:32.928Z,7.30
2022-11-24T17:16:39.568Z,6.67
2022-11-24T17:19:44.294Z,7.93
2022-11-24T17:22:47.816Z,8.55
2022-11-24T17:25:52.240Z,7.93
2022-11-24T17:28:56.792Z,8.67
2022-11-24T17:32:00.614Z,7.87
2022-11-24T17:35:04.124Z,7.90
2022-11-24T17:38:07.675Z,8.25
2022-11-24T17:41:11.794Z,8.05
2022-11-24T17:44:15.408Z,7.80
2022-11-24T17:47:19.228Z,8.17
2022-11-24T17:50:26.767Z,8.13
2022-11-24T17:53:30.944Z,7.82
2022-11-24T17:56:34.886Z,6.97
2022-11-24T17:59:39.165Z,7.77
2022-11-24T18:02:42.799Z,7.30
2022-11-24T18:05:46.746Z,7.60
2022-11-24T18:08:50.604Z,7.70
2022-11-24T18:11:54.743Z,7.00
2022-11-24T18:14:58.464Z,7.40
2022-11-24T18:18:03.869Z,6.83
2022-11-24T18:21:08.777Z,7.00
2022-11-24T18:24:14.182Z,7.53
2022-11-24T18:27:17.744Z,6.80
2022-11-24T18:30:21.760Z,7.53
2022-11-24T18:33:25.267Z,7.53
2022-11-24T18:36:30.810Z,7.80
2022-11-24T18:39:35.799Z,8.20
2022-11-24T18:42:39.592Z,8.05
2022-11-24T18:45:43.409Z,8.10
2022-11-24T18:48:47.679Z,8.10
2022-11-24T18:51:51.474Z,7.72
2022-11-24T18:54:55.293Z,7.72
2022-11-24T18:58:03.617Z,7.40
2022-11-24T19:01:15.645Z,8.17
2022-11-24T19:04:20.538Z,6.83
2022-11-24T19:07:24.461Z,6.55
2022-11-24T19:10:34.101Z,6.78
2022-11-24T19:13:40.296Z,6.95
2022-11-24T19:16:51.195Z,6.67
2022-11-24T19:19:55.009Z,6.67
2022-11-24T19:22:58.680Z,6.22
2022-11-24T19:26:08.879Z,6.45
2022-11-24T19:29:15.288Z,6.53
2022-11-24T19:32:20.778Z,6.67
2022-11-24T19:35:24.670Z,6.63
2022-11-24T19:38:31.204Z,7.22
2022-11-24T19:41:35.407Z,7.10
2022-11-24T19:44:39.324Z,6.57
2022-11-24T19:47:43.801Z,7.60
2022-11-24T19:50:48.385Z,6.70
2022-11-24T19:53:52.921Z,6.93
2022-11-24T19:56:57.139Z,6.85
2022-11-24T20:00:07.054Z,6.45
2022-11-24T20:03:11.380Z,6.27
2022-11-24T20:06:24.068Z,8.33
2022-11-24T20:09:37.949Z,7.95
2022-11-24T20:12:44.275Z,8.25
2022-11-24T20:15:50.535Z,7.85
2022-11-24T20:19:01.037Z,7.80
2022-11-24T20:22:05.119Z,8.03
2022-11-24T20:25:11.793Z,9.15
2022-11-24T20:28:16.293Z,7.65
2022-11-24T20:31:36.029Z,7.93
2022-11-24T20:34:39.526Z,7.00
2022-11-24T20:41:27.215Z,7.80
2022-11-24T20:44:34.987Z,7.53
2022-11-24T20:47:38.074Z,7.65
2022-11-24T20:50:51.018Z,8.03
2022-11-24T20:53:57.884Z,13.00
2022-11-24T20:57:01.456Z,10.15
2022-11-24T21:00:05.546Z,7.15
2022-11-24T21:03:08.914Z,7.07
2022-11-24T21:06:13.924Z,7.67
2022-11-24T21:09:20.356Z,7.37
2022-11-24T21:12:24.981Z,7.18
2022-11-24T21:15:29.860Z,7.47
2022-11-24T21:18:34.256Z,7.78
2022-11-24T21:21:38.293Z,7.90
2022-11-24T21:24:43.012Z,7.27
2022-11-24T21:27:46.519Z,7.30
2022-11-24T21:30:49.742Z,7.30
2022-11-24T21:33:56.987Z,7.45
2022-11-24T21:37:02.879Z,7.20
2022-11-24T21:40:07.209Z,7.20
2022-11-24T21:43:12.535Z,8.15
2022-11-24T21:46:16.342Z,7.50
2022-11-24T21:49:20.815Z,7.07
2022-11-24T21:52:23.793Z,6.97
2022-11-24T21:55:28.117Z,7.43
2022-11-24T21:58:32.543Z,7.65
2022-11-24T22:01:35.664Z,9.68
2022-11-24T22:04:38.765Z,7.43
2022-11-24T22:07:41.976Z,8.07
2022-11-24T22:10:44.915Z,8.30
2022-11-24T22:13:48.640Z,7.90
2022-11-24T22:16:51.605Z,8.23
2022-11-24T22:19:55.464Z,12.10
2022-11-24T22:22:58.603Z,8.87
2022-11-24T22:26:12.712Z,9.90
2022-11-24T22:29:15.992Z,11.60
2022-11-24T22:32:19.004Z,10.38
2022-11-24T22:35:21.992Z,11.93
2022-11-24T22:38:25.470Z,10.77
2022-11-24T22:41:28.406Z,8.83
2022-11-24T22:44:31.300Z,8.45
2022-11-24T22:47:34.096Z,9.18
2022-11-24T22:50:37.121Z,8.38
2022-11-24T22:53:40.315Z,7.90
2022-11-24T22:56:43.177Z,8.17
2022-11-24T22:59:46.589Z,8.48
2022-11-24T23:02:49.918Z,7.87
2022-11-24T23:05:52.974Z,8.10
2022-11-24T23:08:57.470Z,10.43
2022-11-24T23:12:00.396Z,9.17
2022-11-24T23:15:03.836Z,7.80
2022-11-24T23:18:06.806Z,8.55
2022-11-24T23:21:15.082Z,8.95
2022-11-24T23:24:18.044Z,8.90
2022-11-24T23:27:21.236Z,8.53
2022-11-24T23:30:24.313Z,8.52
2022-11-24T23:33:27.356Z,7.75
2022-11-24T23:36:31.116Z,7.43
2022-11-24T23:39:34.290Z,7.20
2022-11-24T23:42:37.238Z,8.17
2022-11-24T23:45:40.288Z,7.22
2022-11-24T23:48:43.888Z,7.72
2022-11-24T23:51:47.239Z,7.75
2022-11-24T23:55:05.770Z,7.37
2022-11-24T23:58:09.321Z,7.20
